createdAt,value
2024-03-16T00:01:41.521Z,13.15
2024-03-16T00:04:45.212Z,10.38
2024-03-16T00:07:48.026Z,10.67
2024-03-16T00:10:52.162Z,11.27
2024-03-16T00:13:55.035Z,11.00
2024-03-16T00:16:57.945Z,11.65
2024-03-16T00:20:00.929Z,11.80
2024-03-16T00:23:03.921Z,11.80
2024-03-16T00:26:06.684Z,12.00
2024-03-16T00:29:09.330Z,11.32
2024-03-16T00:32:12.193Z,12.32
2024-03-16T00:35:14.974Z,10.80
2024-03-16T00:38:18.593Z,10.43
2024-03-16T00:41:21.590Z,12.38
2024-03-16T00:44:25.235Z,13.73
2024-03-16T00:47:28.092Z,11.50
2024-03-16T00:50:32.990Z,14.00
2024-03-16T00:53:38.239Z,11.53
2024-03-16T00:56:40.913Z,12.00
2024-03-16T00:59:43.635Z,13.07
2024-03-16T01:02:46.796Z,12.65
2024-03-16T01:05:53.809Z,10.63
2024-03-16T01:08:56.573Z,12.27
2024-03-16T01:11:59.414Z,12.05
2024-03-16T01:15:02.247Z,10.95
2024-03-16T01:18:05.331Z,12.55
2024-03-16T01:21:08.545Z,11.55
2024-03-16T01:24:11.374Z,10.83
2024-03-16T01:27:14.129Z,11.57
2024-03-16T01:30:17.607Z,12.55
2024-03-16T01:33:20.582Z,12.75
2024-03-16T01:36:23.609Z,11.30
2024-03-16T01:39:26.344Z,10.03
2024-03-16T01:42:29.292Z,10.85
2024-03-16T01:45:33.478Z,10.02
2024-03-16T01:48:36.250Z,10.50
2024-03-16T01:51:40.675Z,11.10
2024-03-16T01:54:44.239Z,10.27
2024-03-16T01:57:47.059Z,11.45
2024-03-16T02:00:50.022Z,10.75
2024-03-16T02:03:55.371Z,10.25
2024-03-16T02:06:59.199Z,10.90
2024-03-16T02:10:06.546Z,11.60
2024-03-16T02:13:09.584Z,10.18
2024-03-16T02:16:12.368Z,10.63
2024-03-16T02:19:15.128Z,11.10
2024-03-16T02:22:18.429Z,10.55
2024-03-16T02:25:23.748Z,10.53
2024-03-16T02:28:26.865Z,9.73
2024-03-16T02:31:29.885Z,10.95
2024-03-16T02:34:34.433Z,10.23
2024-03-16T02:37:37.770Z,9.70
2024-03-16T02:40:40.880Z,11.07
2024-03-16T02:43:43.553Z,10.43
2024-03-16T02:46:46.867Z,9.90
2024-03-16T02:49:51.684Z,9.82
2024-03-16T02:52:54.911Z,10.55
2024-03-16T02:55:57.566Z,9.83
2024-03-16T02:59:00.361Z,10.10
2024-03-16T03:02:03.124Z,10.27
2024-03-16T03:05:07.310Z,10.75
2024-03-16T03:08:11.490Z,10.15
2024-03-16T03:11:14.566Z,9.37
2024-03-16T03:14:18.896Z,8.95
2024-03-16T03:17:22.458Z,10.63
2024-03-16T03:20:25.537Z,11.27
2024-03-16T03:23:29.471Z,9.95
2024-03-16T03:26:32.368Z,10.33
2024-03-16T03:29:35.671Z,9.52
2024-03-16T03:32:38.615Z,9.73
2024-03-16T03:35:41.705Z,10.52
2024-03-16T03:38:44.876Z,8.85
2024-03-16T03:41:47.751Z,9.67
2024-03-16T03:45:09.558Z,9.93
2024-03-16T03:48:24.674Z,9.88
2024-03-16T03:51:27.700Z,10.45
2024-03-16T03:54:30.718Z,8.73
2024-03-16T03:57:33.517Z,9.67
2024-03-16T04:00:37.883Z,10.55
2024-03-16T04:03:40.525Z,9.60
2024-03-16T04:06:46.019Z,8.88
2024-03-16T04:09:50.432Z,9.07
2024-03-16T04:12:53.436Z,9.20
2024-03-16T04:15:56.123Z,8.05
2024-03-16T04:18:59.091Z,9.27
2024-03-16T04:22:02.238Z,9.57
2024-03-16T04:25:06.455Z,9.75
2024-03-16T04:28:11.171Z,10.50
2024-03-16T04:31:13.954Z,9.15
2024-03-16T04:34:18.760Z,9.63
2024-03-16T04:37:22.504Z,9.32
2024-03-16T04:40:25.794Z,8.80
2024-03-16T04:43:28.698Z,8.10
2024-03-16T04:46:34.749Z,9.05
2024-03-16T04:49:37.429Z,9.07
2024-03-16T04:52:40.093Z,9.48
2024-03-16T04:55:42.984Z,9.80
2024-03-16T04:58:46.552Z,7.77
2024-03-16T05:01:49.474Z,7.80
2024-03-16T05:04:52.628Z,8.27
2024-03-16T05:07:56.419Z,9.00
2024-03-16T05:11:02.934Z,8.95
2024-03-16T05:14:09.086Z,7.90
2024-03-16T05:17:12.036Z,7.43
2024-03-16T05:20:15.770Z,8.73
2024-03-16T05:23:20.997Z,8.32
2024-03-16T05:26:24.203Z,8.60
2024-03-16T05:29:27.092Z,8.77
2024-03-16T05:32:29.747Z,7.00
2024-03-16T05:35:32.958Z,7.93
2024-03-16T05:38:35.666Z,8.80
2024-03-16T05:41:38.581Z,7.63
2024-03-16T05:44:41.455Z,9.00
2024-03-16T05:47:44.866Z,8.07
2024-03-16T05:50:50.543Z,8.85
2024-03-16T05:53:54.025Z,7.35
2024-03-16T05:56:56.621Z,7.70
2024-03-16T05:59:59.470Z,7.47
2024-03-16T06:03:02.240Z,7.90
2024-03-16T06:06:05.425Z,9.18
2024-03-16T06:09:09.874Z,7.28
2024-03-16T06:12:13.405Z,8.20
2024-03-16T06:15:16.203Z,8.57
2024-03-16T06:18:20.138Z,7.07
2024-03-16T06:21:23.124Z,7.72
2024-03-16T06:24:26.001Z,8.18
2024-03-16T06:27:28.602Z,9.15
2024-03-16T06:30:31.915Z,8.20
2024-03-16T06:33:35.256Z,7.43
2024-03-16T06:36:38.394Z,7.88
2024-03-16T06:39:41.739Z,8.85
2024-03-16T06:42:45.228Z,7.32
2024-03-16T06:45:50.464Z,7.23
2024-03-16T06:48:53.360Z,7.03
2024-03-16T06:51:56.607Z,7.28
2024-03-16T06:54:59.695Z,7.07
2024-03-16T06:58:02.441Z,7.05
2024-03-16T07:01:05.812Z,7.60
2024-03-16T07:04:08.879Z,7.20
2024-03-16T07:07:11.848Z,7.47
2024-03-16T07:10:16.433Z,7.97
2024-03-16T07:13:19.309Z,7.32
2024-03-16T07:16:22.723Z,7.70
2024-03-16T07:19:25.771Z,6.93
2024-03-16T07:22:28.642Z,8.65
2024-03-16T07:25:31.465Z,8.13
2024-03-16T07:28:37.318Z,7.30
2024-03-16T07:31:40.455Z,7.50
2024-03-16T07:34:43.009Z,7.20
2024-03-16T07:37:45.854Z,6.78
2024-03-16T07:40:48.692Z,7.45
2024-03-16T07:43:52.419Z,7.75
2024-03-16T07:46:55.252Z,6.57
2024-03-16T07:49:58.036Z,7.78
2024-03-16T07:53:00.976Z,7.57
2024-03-16T07:56:10.607Z,7.45
2024-03-16T07:59:13.804Z,6.40
2024-03-16T08:02:19.416Z,7.60
2024-03-16T08:05:23.525Z,7.20
2024-03-16T08:08:26.434Z,6.75
2024-03-16T08:11:31.412Z,7.50
2024-03-16T08:14:36.318Z,6.75
2024-03-16T08:17:39.019Z,6.83
2024-03-16T08:20:41.626Z,7.22
2024-03-16T08:23:47.049Z,7.20
2024-03-16T08:26:49.708Z,7.57
2024-03-16T08:29:56.433Z,7.40
2024-03-16T08:32:59.345Z,6.77
2024-03-16T08:36:02.495Z,7.72
2024-03-16T08:39:06.152Z,7.40
2024-03-16T08:42:09.053Z,7.72
2024-03-16T08:45:12.121Z,6.82
2024-03-16T08:48:15.131Z,7.73
2024-03-16T08:51:17.817Z,8.90
2024-03-16T08:54:20.456Z,6.85
2024-03-16T08:57:24.090Z,6.50
2024-03-16T09:00:26.925Z,7.68
2024-03-16T09:03:30.686Z,7.30
2024-03-16T09:06:33.617Z,8.68
2024-03-16T09:09:36.339Z,6.32
2024-03-16T09:12:39.432Z,6.78
2024-03-16T09:15:42.407Z,6.82
2024-03-16T09:18:46.334Z,7.10
2024-03-16T09:21:50.485Z,6.70
2024-03-16T09:24:53.362Z,6.38
2024-03-16T09:27:56.040Z,6.70
2024-03-16T09:30:59.999Z,7.07
2024-03-16T09:34:04.941Z,7.33
2024-03-16T09:37:07.684Z,7.65
2024-03-16T09:40:14.862Z,6.50
